sensor_id;sensor_type;location;lat;lon;timestamp;temperature;humidity
13035;DHT22;6584;48.022;11.810;2022-12-08T00:00:23;1.70;99.90
13035;DHT22;6584;48.022;11.810;2022-12-08T00:02:48;1.80;99.90
13035;DHT22;6584;48.022;11.810;2022-12-08T00:05:14;1.70;99.90
13035;DHT22;6584;48.022;11.810;2022-12-08T00:07:58;1.70;99.90
13035;DHT22;6584;48.022;11.810;2022-12-08T00:10:43;1.70;99.90
13035;DHT22;6584;48.022;11.810;2022-12-08T00:13:09;1.70;99.90
13035;DHT22;6584;48.022;11.810;2022-12-08T00:15:35;1.70;99.90
13035;DHT22;6584;48.022;11.810;2022-12-08T00:18:00;1.70;99.90
13035;DHT22;6584;48.022;11.810;2022-12-08T00:20:26;1.70;99.90
13035;DHT22;6584;48.022;11.810;2022-12-08T00:22:52;1.70;99.90
13035;DHT22;6584;48.022;11.810;2022-12-08T00:25:17;1.70;99.90
13035;DHT22;6584;48.022;11.810;2022-12-08T00:27:43;1.70;99.90
13035;DHT22;6584;48.022;11.810;2022-12-08T00:30:09;1.70;99.90
13035;DHT22;6584;48.022;11.810;2022-12-08T00:32:35;1.70;99.90
13035;DHT22;6584;48.022;11.810;2022-12-08T00:35:02;1.70;99.90
13035;DHT22;6584;48.022;11.810;2022-12-08T00:37:27;1.70;99.90
13035;DHT22;6584;48.022;11.810;2022-12-08T00:39:53;1.70;99.90
13035;DHT22;6584;48.022;11.810;2022-12-08T00:42:18;1.70;99.90
13035;DHT22;6584;48.022;11.810;2022-12-08T00:44:44;1.70;99.90
13035;DHT22;6584;48.022;11.810;2022-12-08T00:47:11;1.70;99.90
13035;DHT22;6584;48.022;11.810;2022-12-08T00:49:38;1.60;99.90
13035;DHT22;6584;48.022;11.810;2022-12-08T00:52:03;1.70;99.90
13035;DHT22;6584;48.022;11.810;2022-12-08T00:54:29;1.70;99.90
13035;DHT22;6584;48.022;11.810;2022-12-08T00:56:55;1.70;99.90
13035;DHT22;6584;48.022;11.810;2022-12-08T00:59:20;1.70;99.90
13035;DHT22;6584;48.022;11.810;2022-12-08T01:01:46;1.60;99.90
13035;DHT22;6584;48.022;11.810;2022-12-08T01:04:14;1.70;99.90
13035;DHT22;6584;48.022;11.810;2022-12-08T01:06:40;1.60;99.90
13035;DHT22;6584;48.022;11.810;2022-12-08T01:09:07;1.60;99.90
13035;DHT22;6584;48.022;11.810;2022-12-08T01:11:33;1.60;99.90
13035;DHT22;6584;48.022;11.810;2022-12-08T01:13:59;1.60;99.90
13035;DHT22;6584;48.022;11.810;2022-12-08T01:16:28;1.60;99.90
13035;DHT22;6584;48.022;11.810;2022-12-08T01:18:54;1.60;99.90
13035;DHT22;6584;48.022;11.810;2022-12-08T01:21:20;1.60;99.90
13035;DHT22;6584;48.022;11.810;2022-12-08T01:23:46;1.60;99.90
13035;DHT22;6584;48.022;11.810;2022-12-08T01:26:13;1.50;99.90
13035;DHT22;6584;48.022;11.810;2022-12-08T01:28:40;1.60;99.90
13035;DHT22;6584;48.022;11.810;2022-12-08T01:31:14;1.50;99.90
13035;DHT22;6584;48.022;11.810;2022-12-08T01:33:40;1.60;99.90
13035;DHT22;6584;48.022;11.810;2022-12-08T01:36:07;1.50;99.90
13035;DHT22;6584;48.022;11.810;2022-12-08T01:38:33;1.50;99.90
13035;DHT22;6584;48.022;11.810;2022-12-08T01:40:58;1.50;99.90
13035;DHT22;6584;48.022;11.810;2022-12-08T01:43:24;1.50;99.90
13035;DHT22;6584;48.022;11.810;2022-12-08T01:45:50;1.50;99.90
13035;DHT22;6584;48.022;11.810;2022-12-08T01:48:26;1.40;99.90
13035;DHT22;6584;48.022;11.810;2022-12-08T01:50:53;1.30;99.90
13035;DHT22;6584;48.022;11.810;2022-12-08T01:53:26;1.40;99.90
13035;DHT22;6584;48.022;11.810;2022-12-08T01:55:56;1.40;99.90
13035;DHT22;6584;48.022;11.810;2022-12-08T01:58:29;1.40;99.90
13035;DHT22;6584;48.022;11.810;2022-12-08T02:00:56;1.40;99.90
13035;DHT22;6584;48.022;11.810;2022-12-08T02:03:28;1.40;99.90
13035;DHT22;6584;48.022;11.810;2022-12-08T02:05:56;1.40;99.90
13035;DHT22;6584;48.022;11.810;2022-12-08T02:08:22;1.40;99.90
13035;DHT22;6584;48.022;11.810;2022-12-08T02:10:50;1.40;99.90
13035;DHT22;6584;48.022;11.810;2022-12-08T02:13:18;1.50;99.90
13035;DHT22;6584;48.022;11.810;2022-12-08T02:15:47;1.50;99.90
13035;DHT22;6584;48.022;11.810;2022-12-08T02:20:57;1.50;99.90
13035;DHT22;6584;48.022;11.810;2022-12-08T02:23:39;1.50;99.90
13035;DHT22;6584;48.022;11.810;2022-12-08T02:34:23;1.50;99.90
13035;DHT22;6584;48.022;11.810;2022-12-08T02:42:31;1.50;99.90
13035;DHT22;6584;48.022;11.810;2022-12-08T02:45:14;1.50;99.90
13035;DHT22;6584;48.022;11.810;2022-12-08T02:47:42;1.30;99.90
13035;DHT22;6584;48.022;11.810;2022-12-08T02:50:08;1.30;99.90
13035;DHT22;6584;48.022;11.810;2022-12-08T02:52:46;1.40;99.90
13035;DHT22;6584;48.022;11.810;2022-12-08T02:55:27;1.40;99.90
13035;DHT22;6584;48.022;11.810;2022-12-08T03:00:34;1.40;99.90
13035;DHT22;6584;48.022;11.810;2022-12-08T03:09:16;1.40;99.90
13035;DHT22;6584;48.022;11.810;2022-12-08T03:14:17;1.40;99.90
13035;DHT22;6584;48.022;11.810;2022-12-08T03:16:46;1.40;99.90
13035;DHT22;6584;48.022;11.810;2022-12-08T03:21:43;1.40;99.90
13035;DHT22;6584;48.022;11.810;2022-12-08T03:24:11;1.40;99.90
13035;DHT22;6584;48.022;11.810;2022-12-08T03:26:56;1.50;99.90
13035;DHT22;6584;48.022;11.810;2022-12-08T03:29:23;1.40;99.90
13035;DHT22;6584;48.022;11.810;2022-12-08T03:31:52;1.50;99.90
13035;DHT22;6584;48.022;11.810;2022-12-08T03:34:19;1.40;99.90
13035;DHT22;6584;48.022;11.810;2022-12-08T03:36:46;1.40;99.90
13035;DHT22;6584;48.022;11.810;2022-12-08T03:39:11;1.40;99.90
13035;DHT22;6584;48.022;11.810;2022-12-08T03:41:37;1.40;99.90
13035;DHT22;6584;48.022;11.810;2022-12-08T03:44:03;1.40;99.90
13035;DHT22;6584;48.022;11.810;2022-12-08T03:46:29;1.50;99.90
13035;DHT22;6584;48.022;11.810;2022-12-08T03:48:55;1.50;99.90
13035;DHT22;6584;48.022;11.810;2022-12-08T03:51:22;1.50;99.90
13035;DHT22;6584;48.022;11.810;2022-12-08T03:53:48;1.40;99.90
13035;DHT22;6584;48.022;11.810;2022-12-08T03:56:26;1.40;99.90
13035;DHT22;6584;48.022;11.810;2022-12-08T03:58:53;1.40;99.90
13035;DHT22;6584;48.022;11.810;2022-12-08T04:01:19;1.50;99.90
13035;DHT22;6584;48.022;11.810;2022-12-08T04:03:45;1.40;99.90
13035;DHT22;6584;48.022;11.810;2022-12-08T04:06:10;1.40;99.90
13035;DHT22;6584;48.022;11.810;2022-12-08T04:08:36;1.40;99.90
13035;DHT22;6584;48.022;11.810;2022-12-08T04:11:02;1.40;99.90
13035;DHT22;6584;48.022;11.810;2022-12-08T04:13:28;1.40;99.90
13035;DHT22;6584;48.022;11.810;2022-12-08T04:15:53;1.40;99.90
13035;DHT22;6584;48.022;11.810;2022-12-08T04:18:19;1.40;99.90
13035;DHT22;6584;48.022;11.810;2022-12-08T04:20:45;1.40;99.90
13035;DHT22;6584;48.022;11.810;2022-12-08T04:23:11;1.30;99.90
13035;DHT22;6584;48.022;11.810;2022-12-08T04:25:37;1.40;99.90
13035;DHT22;6584;48.022;11.810;2022-12-08T04:28:03;1.40;99.90
13035;DHT22;6584;48.022;11.810;2022-12-08T04:30:29;1.40;99.90
13035;DHT22;6584;48.022;11.810;2022-12-08T04:32:55;1.40;99.90
13035;DHT22;6584;48.022;11.810;2022-12-08T04:35:20;1.40;99.90
13035;DHT22;6584;48.022;11.810;2022-12-08T04:37:46;1.40;99.90
13035;DHT22;6584;48.022;11.810;2022-12-08T04:40:12;1.40;99.90
13035;DHT22;6584;48.022;11.810;2022-12-08T04:42:38;1.40;99.90
13035;DHT22;6584;48.022;11.810;2022-12-08T04:45:04;1.40;99.90
13035;DHT22;6584;48.022;11.810;2022-12-08T04:47:30;1.40;99.90
13035;DHT22;6584;48.022;11.810;2022-12-08T04:49:56;1.40;99.90
13035;DHT22;6584;48.022;11.810;2022-12-08T04:52:21;1.40;99.90
13035;DHT22;6584;48.022;11.810;2022-12-08T04:54:47;1.40;99.90
13035;DHT22;6584;48.022;11.810;2022-12-08T04:57:13;1.40;99.90
13035;DHT22;6584;48.022;11.810;2022-12-08T04:59:38;1.40;99.90
13035;DHT22;6584;48.022;11.810;2022-12-08T05:02:04;1.40;99.90
13035;DHT22;6584;48.022;11.810;2022-12-08T05:04:30;1.40;99.90
13035;DHT22;6584;48.022;11.810;2022-12-08T05:06:55;1.40;99.90
13035;DHT22;6584;48.022;11.810;2022-12-08T05:09:21;1.40;99.90
13035;DHT22;6584;48.022;11.810;2022-12-08T05:11:46;1.40;99.90
13035;DHT22;6584;48.022;11.810;2022-12-08T05:14:13;1.30;99.90
13035;DHT22;6584;48.022;11.810;2022-12-08T05:16:40;1.30;99.90
13035;DHT22;6584;48.022;11.810;2022-12-08T05:19:06;1.30;99.90
13035;DHT22;6584;48.022;11.810;2022-12-08T05:21:32;1.30;99.90
13035;DHT22;6584;48.022;11.810;2022-12-08T05:23:57;1.30;99.90
13035;DHT22;6584;48.022;11.810;2022-12-08T05:26:23;1.30;99.90
13035;DHT22;6584;48.022;11.810;2022-12-08T05:28:49;1.30;99.90
13035;DHT22;6584;48.022;11.810;2022-12-08T05:31:15;1.30;99.90
13035;DHT22;6584;48.022;11.810;2022-12-08T05:33:42;1.20;99.90
13035;DHT22;6584;48.022;11.810;2022-12-08T05:36:09;1.20;99.90
13035;DHT22;6584;48.022;11.810;2022-12-08T05:38:36;1.10;99.90
13035;DHT22;6584;48.022;11.810;2022-12-08T05:41:02;1.10;99.90
13035;DHT22;6584;48.022;11.810;2022-12-08T05:43:27;1.10;99.90
13035;DHT22;6584;48.022;11.810;2022-12-08T05:45:53;1.10;99.90
13035;DHT22;6584;48.022;11.810;2022-12-08T05:48:19;1.00;99.90
13035;DHT22;6584;48.022;11.810;2022-12-08T05:50:48;1.00;99.90
13035;DHT22;6584;48.022;11.810;2022-12-08T05:53:15;1.00;99.90
13035;DHT22;6584;48.022;11.810;2022-12-08T05:55:40;1.00;99.90
13035;DHT22;6584;48.022;11.810;2022-12-08T05:58:06;1.00;99.90
13035;DHT22;6584;48.022;11.810;2022-12-08T06:00:35;1.00;99.90
13035;DHT22;6584;48.022;11.810;2022-12-08T06:03:01;1.00;99.90
13035;DHT22;6584;48.022;11.810;2022-12-08T06:05:26;1.00;99.90
13035;DHT22;6584;48.022;11.810;2022-12-08T06:07:52;0.90;99.90
13035;DHT22;6584;48.022;11.810;2022-12-08T06:10:17;0.90;99.90
13035;DHT22;6584;48.022;11.810;2022-12-08T06:12:43;0.90;99.90
13035;DHT22;6584;48.022;11.810;2022-12-08T06:15:09;0.90;99.90
13035;DHT22;6584;48.022;11.810;2022-12-08T06:17:34;0.90;99.90
13035;DHT22;6584;48.022;11.810;2022-12-08T06:20:00;0.90;99.90
13035;DHT22;6584;48.022;11.810;2022-12-08T06:22:26;0.90;99.90
13035;DHT22;6584;48.022;11.810;2022-12-08T06:24:52;0.90;99.90
13035;DHT22;6584;48.022;11.810;2022-12-08T06:27:18;0.90;99.90
13035;DHT22;6584;48.022;11.810;2022-12-08T06:29:43;0.90;99.90
13035;DHT22;6584;48.022;11.810;2022-12-08T06:32:10;0.90;99.90
13035;DHT22;6584;48.022;11.810;2022-12-08T06:34:36;0.80;99.90
13035;DHT22;6584;48.022;11.810;2022-12-08T06:37:01;0.50;99.90
13035;DHT22;6584;48.022;11.810;2022-12-08T06:39:27;0.60;99.90
13035;DHT22;6584;48.022;11.810;2022-12-08T06:41:52;0.60;99.90
13035;DHT22;6584;48.022;11.810;2022-12-08T06:44:37;0.60;99.90
13035;DHT22;6584;48.022;11.810;2022-12-08T06:47:03;0.60;99.90
13035;DHT22;6584;48.022;11.810;2022-12-08T06:49:29;0.60;99.90
13035;DHT22;6584;48.022;11.810;2022-12-08T06:51:54;0.60;99.90
13035;DHT22;6584;48.022;11.810;2022-12-08T06:54:20;0.60;99.90
13035;DHT22;6584;48.022;11.810;2022-12-08T06:56:45;0.60;99.90
13035;DHT22;6584;48.022;11.810;2022-12-08T06:59:11;0.60;99.90
13035;DHT22;6584;48.022;11.810;2022-12-08T07:01:36;0.60;99.90
13035;DHT22;6584;48.022;11.810;2022-12-08T07:04:02;0.60;99.90
13035;DHT22;6584;48.022;11.810;2022-12-08T07:06:28;0.60;99.90
13035;DHT22;6584;48.022;11.810;2022-12-08T07:08:53;0.60;99.90
13035;DHT22;6584;48.022;11.810;2022-12-08T07:11:19;0.60;99.90
13035;DHT22;6584;48.022;11.810;2022-12-08T07:13:44;0.60;99.90
13035;DHT22;6584;48.022;11.810;2022-12-08T07:16:11;0.50;99.90
13035;DHT22;6584;48.022;11.810;2022-12-08T07:18:38;0.40;99.90
13035;DHT22;6584;48.022;11.810;2022-12-08T07:21:06;0.30;99.90
13035;DHT22;6584;48.022;11.810;2022-12-08T07:23:32;0.40;99.90
13035;DHT22;6584;48.022;11.810;2022-12-08T07:26:02;0.40;99.90
13035;DHT22;6584;48.022;11.810;2022-12-08T07:28:35;0.40;99.90
13035;DHT22;6584;48.022;11.810;2022-12-08T07:31:01;0.50;99.90
13035;DHT22;6584;48.022;11.810;2022-12-08T07:33:27;0.50;99.90
13035;DHT22;6584;48.022;11.810;2022-12-08T07:35:57;0.50;99.90
13035;DHT22;6584;48.022;11.810;2022-12-08T07:38:23;0.40;99.90
13035;DHT22;6584;48.022;11.810;2022-12-08T07:40:50;0.40;99.90
13035;DHT22;6584;48.022;11.810;2022-12-08T07:43:16;0.40;99.90
13035;DHT22;6584;48.022;11.810;2022-12-08T07:45:41;0.50;99.90
13035;DHT22;6584;48.022;11.810;2022-12-08T07:48:07;0.50;99.90
13035;DHT22;6584;48.022;11.810;2022-12-08T07:50:33;0.50;99.90
13035;DHT22;6584;48.022;11.810;2022-12-08T07:52:59;0.50;99.90
13035;DHT22;6584;48.022;11.810;2022-12-08T07:55:25;0.60;99.90
13035;DHT22;6584;48.022;11.810;2022-12-08T07:57:51;0.60;99.90
13035;DHT22;6584;48.022;11.810;2022-12-08T08:00:18;0.60;99.90
13035;DHT22;6584;48.022;11.810;2022-12-08T08:02:44;0.70;99.90
13035;DHT22;6584;48.022;11.810;2022-12-08T08:05:10;0.70;99.90
13035;DHT22;6584;48.022;11.810;2022-12-08T08:07:40;0.80;99.90
13035;DHT22;6584;48.022;11.810;2022-12-08T08:10:11;0.80;99.90
13035;DHT22;6584;48.022;11.810;2022-12-08T08:12:37;0.80;99.90
13035;DHT22;6584;48.022;11.810;2022-12-08T08:15:06;0.70;99.90
13035;DHT22;6584;48.022;11.810;2022-12-08T08:17:32;0.70;99.90
13035;DHT22;6584;48.022;11.810;2022-12-08T08:19:58;0.80;99.90
13035;DHT22;6584;48.022;11.810;2022-12-08T08:22:25;0.80;99.90
13035;DHT22;6584;48.022;11.810;2022-12-08T08:24:51;0.80;99.90
13035;DHT22;6584;48.022;11.810;2022-12-08T08:27:17;0.80;99.90
13035;DHT22;6584;48.022;11.810;2022-12-08T08:29:43;0.90;99.90
13035;DHT22;6584;48.022;11.810;2022-12-08T08:32:08;0.90;99.90
13035;DHT22;6584;48.022;11.810;2022-12-08T08:34:34;0.90;99.90
13035;DHT22;6584;48.022;11.810;2022-12-08T08:36:59;1.00;99.90
13035;DHT22;6584;48.022;11.810;2022-12-08T08:39:25;1.00;99.90
13035;DHT22;6584;48.022;11.810;2022-12-08T08:41:51;1.10;99.90
13035;DHT22;6584;48.022;11.810;2022-12-08T08:44:16;1.10;99.90
13035;DHT22;6584;48.022;11.810;2022-12-08T08:46:42;1.10;99.90
13035;DHT22;6584;48.022;11.810;2022-12-08T08:49:08;1.20;99.90
13035;DHT22;6584;48.022;11.810;2022-12-08T08:51:33;1.30;99.90
13035;DHT22;6584;48.022;11.810;2022-12-08T08:53:59;1.30;99.90
13035;DHT22;6584;48.022;11.810;2022-12-08T08:56:25;1.30;99.90
13035;DHT22;6584;48.022;11.810;2022-12-08T08:58:52;1.40;99.90
13035;DHT22;6584;48.022;11.810;2022-12-08T09:01:20;1.40;99.90
13035;DHT22;6584;48.022;11.810;2022-12-08T09:03:47;1.60;99.90
13035;DHT22;6584;48.022;11.810;2022-12-08T09:06:13;1.60;99.90
13035;DHT22;6584;48.022;11.810;2022-12-08T09:08:39;1.60;99.90
13035;DHT22;6584;48.022;11.810;2022-12-08T09:11:05;1.60;99.90
13035;DHT22;6584;48.022;11.810;2022-12-08T09:13:31;1.70;99.90
13035;DHT22;6584;48.022;11.810;2022-12-08T09:15:56;1.70;99.90
13035;DHT22;6584;48.022;11.810;2022-12-08T09:18:24;1.70;99.90
13035;DHT22;6584;48.022;11.810;2022-12-08T09:20:49;1.80;99.90
13035;DHT22;6584;48.022;11.810;2022-12-08T09:23:15;1.80;99.90
13035;DHT22;6584;48.022;11.810;2022-12-08T09:25:43;1.80;99.90
13035;DHT22;6584;48.022;11.810;2022-12-08T09:28:09;1.90;99.90
13035;DHT22;6584;48.022;11.810;2022-12-08T09:30:35;2.00;99.90
13035;DHT22;6584;48.022;11.810;2022-12-08T09:33:01;2.00;99.90
13035;DHT22;6584;48.022;11.810;2022-12-08T09:35:26;2.10;99.90
13035;DHT22;6584;48.022;11.810;2022-12-08T09:37:52;2.20;99.90
13035;DHT22;6584;48.022;11.810;2022-12-08T09:40:19;2.20;99.90
13035;DHT22;6584;48.022;11.810;2022-12-08T09:45:13;2.40;99.90
13035;DHT22;6584;48.022;11.810;2022-12-08T09:47:47;2.40;99.90
13035;DHT22;6584;48.022;11.810;2022-12-08T09:50:28;2.50;99.90
13035;DHT22;6584;48.022;11.810;2022-12-08T09:53:14;2.50;99.90
13035;DHT22;6584;48.022;11.810;2022-12-08T09:55:49;2.40;99.90
13035;DHT22;6584;48.022;11.810;2022-12-08T09:58:42;2.50;99.90
13035;DHT22;6584;48.022;11.810;2022-12-08T10:01:13;2.50;99.90
13035;DHT22;6584;48.022;11.810;2022-12-08T10:03:39;2.60;99.90
13035;DHT22;6584;48.022;11.810;2022-12-08T10:11:25;2.80;99.90
13035;DHT22;6584;48.022;11.810;2022-12-08T10:16:37;2.70;99.90
13035;DHT22;6584;48.022;11.810;2022-12-08T10:21:36;2.80;99.90
13035;DHT22;6584;48.022;11.810;2022-12-08T10:24:11;2.80;99.90
13035;DHT22;6584;48.022;11.810;2022-12-08T10:26:38;2.80;99.90
13035;DHT22;6584;48.022;11.810;2022-12-08T10:29:04;2.90;99.90
13035;DHT22;6584;48.022;11.810;2022-12-08T10:31:31;3.00;99.90
13035;DHT22;6584;48.022;11.810;2022-12-08T10:33:59;3.00;99.90
13035;DHT22;6584;48.022;11.810;2022-12-08T10:36:45;3.00;99.90
13035;DHT22;6584;48.022;11.810;2022-12-08T10:39:40;2.90;99.90
13035;DHT22;6584;48.022;11.810;2022-12-08T10:47:24;3.00;99.90
13035;DHT22;6584;48.022;11.810;2022-12-08T10:52:44;2.80;99.90
13035;DHT22;6584;48.022;11.810;2022-12-08T10:55:18;2.80;99.90
13035;DHT22;6584;48.022;11.810;2022-12-08T10:57:44;2.70;99.90
13035;DHT22;6584;48.022;11.810;2022-12-08T11:00:19;2.60;99.90
13035;DHT22;6584;48.022;11.810;2022-12-08T11:02:56;2.60;99.90
13035;DHT22;6584;48.022;11.810;2022-12-08T11:05:24;2.60;99.90
13035;DHT22;6584;48.022;11.810;2022-12-08T11:07:52;2.60;99.90
13035;DHT22;6584;48.022;11.810;2022-12-08T11:10:19;2.50;99.90
13035;DHT22;6584;48.022;11.810;2022-12-08T11:12:49;2.50;99.90
13035;DHT22;6584;48.022;11.810;2022-12-08T11:15:16;2.50;99.90
13035;DHT22;6584;48.022;11.810;2022-12-08T11:17:42;2.40;99.90
13035;DHT22;6584;48.022;11.810;2022-12-08T11:27:38;2.50;99.90
13035;DHT22;6584;48.022;11.810;2022-12-08T11:32:42;2.40;99.90
13035;DHT22;6584;48.022;11.810;2022-12-08T11:35:36;2.50;99.90
13035;DHT22;6584;48.022;11.810;2022-12-08T11:38:20;2.50;99.90
13035;DHT22;6584;48.022;11.810;2022-12-08T11:40:53;2.50;99.90
13035;DHT22;6584;48.022;11.810;2022-12-08T11:43:29;2.50;99.90
13035;DHT22;6584;48.022;11.810;2022-12-08T11:45:59;2.50;99.90
13035;DHT22;6584;48.022;11.810;2022-12-08T11:48:49;2.40;99.90
13035;DHT22;6584;48.022;11.810;2022-12-08T11:51:32;2.50;99.90
13035;DHT22;6584;48.022;11.810;2022-12-08T11:56:53;2.50;99.90
13035;DHT22;6584;48.022;11.810;2022-12-08T12:02:04;2.80;99.90
13035;DHT22;6584;48.022;11.810;2022-12-08T12:04:51;2.70;99.90
13035;DHT22;6584;48.022;11.810;2022-12-08T12:18:44;2.70;99.90
13035;DHT22;6584;48.022;11.810;2022-12-08T12:21:32;2.70;99.90
13035;DHT22;6584;48.022;11.810;2022-12-08T12:24:02;2.90;99.90
13035;DHT22;6584;48.022;11.810;2022-12-08T12:26:31;2.90;99.90
13035;DHT22;6584;48.022;11.810;2022-12-08T12:29:04;2.90;99.90
13035;DHT22;6584;48.022;11.810;2022-12-08T12:31:32;2.90;99.90
13035;DHT22;6584;48.022;11.810;2022-12-08T12:39:33;3.00;99.90
13035;DHT22;6584;48.022;11.810;2022-12-08T12:42:02;3.00;99.90
13035;DHT22;6584;48.022;11.810;2022-12-08T12:46:59;3.10;99.90
13035;DHT22;6584;48.022;11.810;2022-12-08T13:05:26;3.30;99.90
13035;DHT22;6584;48.022;11.810;2022-12-08T13:08:04;3.30;99.90
13035;DHT22;6584;48.022;11.810;2022-12-08T13:10:38;3.20;99.90
13035;DHT22;6584;48.022;11.810;2022-12-08T13:13:06;3.20;99.90
13035;DHT22;6584;48.022;11.810;2022-12-08T13:16:04;3.20;99.90
13035;DHT22;6584;48.022;11.810;2022-12-08T13:18:40;3.20;99.90
13035;DHT22;6584;48.022;11.810;2022-12-08T13:21:10;3.20;99.90
13035;DHT22;6584;48.022;11.810;2022-12-08T13:23:45;3.10;99.90
13035;DHT22;6584;48.022;11.810;2022-12-08T13:47:03;3.00;99.90
13035;DHT22;6584;48.022;11.810;2022-12-08T13:49:35;3.00;99.90
13035;DHT22;6584;48.022;11.810;2022-12-08T13:52:02;2.90;99.90
13035;DHT22;6584;48.022;11.810;2022-12-08T13:54:34;2.90;99.90
13035;DHT22;6584;48.022;11.810;2022-12-08T13:57:03;2.90;99.90
13035;DHT22;6584;48.022;11.810;2022-12-08T13:59:32;2.90;99.90
13035;DHT22;6584;48.022;11.810;2022-12-08T14:02:17;2.90;99.90
13035;DHT22;6584;48.022;11.810;2022-12-08T14:04:44;2.90;99.90
13035;DHT22;6584;48.022;11.810;2022-12-08T14:07:11;2.80;99.90
13035;DHT22;6584;48.022;11.810;2022-12-08T14:09:37;2.80;99.90
13035;DHT22;6584;48.022;11.810;2022-12-08T14:12:24;2.80;99.90
13035;DHT22;6584;48.022;11.810;2022-12-08T14:14:55;2.70;99.90
13035;DHT22;6584;48.022;11.810;2022-12-08T14:17:22;2.70;99.90
13035;DHT22;6584;48.022;11.810;2022-12-08T14:19:57;2.60;99.90
13035;DHT22;6584;48.022;11.810;2022-12-08T14:22:23;2.70;99.90
13035;DHT22;6584;48.022;11.810;2022-12-08T14:24:51;2.80;99.90
13035;DHT22;6584;48.022;11.810;2022-12-08T14:27:20;2.80;99.90
13035;DHT22;6584;48.022;11.810;2022-12-08T14:30:07;2.80;99.90
13035;DHT22;6584;48.022;11.810;2022-12-08T14:32:49;2.70;99.90
13035;DHT22;6584;48.022;11.810;2022-12-08T14:37:59;2.60;99.90
13035;DHT22;6584;48.022;11.810;2022-12-08T14:40:35;2.60;99.90
13035;DHT22;6584;48.022;11.810;2022-12-08T14:53:29;2.60;99.90
13035;DHT22;6584;48.022;11.810;2022-12-08T14:56:00;2.60;99.90
13035;DHT22;6584;48.022;11.810;2022-12-08T14:58:29;2.70;99.90
13035;DHT22;6584;48.022;11.810;2022-12-08T15:00:56;2.60;99.90
13035;DHT22;6584;48.022;11.810;2022-12-08T15:03:27;2.70;99.90
13035;DHT22;6584;48.022;11.810;2022-12-08T15:05:58;2.60;99.90
13035;DHT22;6584;48.022;11.810;2022-12-08T15:08:24;2.50;99.90
13035;DHT22;6584;48.022;11.810;2022-12-08T15:11:25;2.50;99.90
13035;DHT22;6584;48.022;11.810;2022-12-08T15:13:52;2.40;99.90
13035;DHT22;6584;48.022;11.810;2022-12-08T15:16:40;2.30;99.90
13035;DHT22;6584;48.022;11.810;2022-12-08T15:19:21;2.30;99.90
13035;DHT22;6584;48.022;11.810;2022-12-08T15:21:52;2.40;99.90
13035;DHT22;6584;48.022;11.810;2022-12-08T15:24:25;2.30;99.90
13035;DHT22;6584;48.022;11.810;2022-12-08T15:26:51;2.30;99.90
13035;DHT22;6584;48.022;11.810;2022-12-08T15:29:25;2.20;99.90
13035;DHT22;6584;48.022;11.810;2022-12-08T15:31:54;2.20;99.90
13035;DHT22;6584;48.022;11.810;2022-12-08T15:34:20;2.10;99.90
13035;DHT22;6584;48.022;11.810;2022-12-08T15:36:48;2.10;99.90
13035;DHT22;6584;48.022;11.810;2022-12-08T15:39:35;2.00;99.90
13035;DHT22;6584;48.022;11.810;2022-12-08T15:42:02;2.00;99.90
13035;DHT22;6584;48.022;11.810;2022-12-08T15:44:29;1.90;99.90
13035;DHT22;6584;48.022;11.810;2022-12-08T15:46:57;1.90;99.90
13035;DHT22;6584;48.022;11.810;2022-12-08T15:49:23;1.80;99.90
13035;DHT22;6584;48.022;11.810;2022-12-08T15:51:50;1.80;99.90
13035;DHT22;6584;48.022;11.810;2022-12-08T15:54:16;1.80;99.90
13035;DHT22;6584;48.022;11.810;2022-12-08T15:56:49;1.70;99.90
13035;DHT22;6584;48.022;11.810;2022-12-08T15:59:17;1.70;99.90
13035;DHT22;6584;48.022;11.810;2022-12-08T16:01:43;1.70;99.90
13035;DHT22;6584;48.022;11.810;2022-12-08T16:04:18;1.60;99.90
13035;DHT22;6584;48.022;11.810;2022-12-08T16:06:49;1.60;99.90
13035;DHT22;6584;48.022;11.810;2022-12-08T16:09:22;1.50;99.90
13035;DHT22;6584;48.022;11.810;2022-12-08T16:11:48;1.40;99.90
13035;DHT22;6584;48.022;11.810;2022-12-08T16:14:32;1.40;99.90
13035;DHT22;6584;48.022;11.810;2022-12-08T16:16:58;1.40;99.90
13035;DHT22;6584;48.022;11.810;2022-12-08T16:19:23;1.40;99.90
13035;DHT22;6584;48.022;11.810;2022-12-08T16:21:49;1.40;99.90
13035;DHT22;6584;48.022;11.810;2022-12-08T16:24:14;1.30;99.90
13035;DHT22;6584;48.022;11.810;2022-12-08T16:26:40;1.30;99.90
13035;DHT22;6584;48.022;11.810;2022-12-08T16:29:06;1.20;99.90
13035;DHT22;6584;48.022;11.810;2022-12-08T16:31:32;1.30;99.90
13035;DHT22;6584;48.022;11.810;2022-12-08T16:33:57;1.20;99.90
13035;DHT22;6584;48.022;11.810;2022-12-08T16:36:23;1.20;99.90
13035;DHT22;6584;48.022;11.810;2022-12-08T16:38:48;1.10;99.90
13035;DHT22;6584;48.022;11.810;2022-12-08T16:41:15;1.10;99.90
13035;DHT22;6584;48.022;11.810;2022-12-08T16:44:04;1.10;99.90
13035;DHT22;6584;48.022;11.810;2022-12-08T16:46:30;1.00;99.90
13035;DHT22;6584;48.022;11.810;2022-12-08T16:48:56;1.00;99.90
13035;DHT22;6584;48.022;11.810;2022-12-08T16:51:23;1.00;99.90
13035;DHT22;6584;48.022;11.810;2022-12-08T16:53:50;0.90;99.90
13035;DHT22;6584;48.022;11.810;2022-12-08T16:56:17;0.80;99.90
13035;DHT22;6584;48.022;11.810;2022-12-08T16:58:46;0.80;99.90
13035;DHT22;6584;48.022;11.810;2022-12-08T17:01:14;0.80;99.90
13035;DHT22;6584;48.022;11.810;2022-12-08T17:03:41;0.80;99.90
13035;DHT22;6584;48.022;11.810;2022-12-08T17:06:11;0.80;99.90
13035;DHT22;6584;48.022;11.810;2022-12-08T17:08:38;0.70;99.90
13035;DHT22;6584;48.022;11.810;2022-12-08T17:11:04;0.70;99.90
13035;DHT22;6584;48.022;11.810;2022-12-08T17:13:34;0.70;99.90
13035;DHT22;6584;48.022;11.810;2022-12-08T17:16:01;0.70;99.90
13035;DHT22;6584;48.022;11.810;2022-12-08T17:18:27;0.70;99.90
13035;DHT22;6584;48.022;11.810;2022-12-08T17:20:52;0.60;99.90
13035;DHT22;6584;48.022;11.810;2022-12-08T17:23:18;0.70;99.90
13035;DHT22;6584;48.022;11.810;2022-12-08T17:25:44;0.70;99.90
13035;DHT22;6584;48.022;11.810;2022-12-08T17:28:09;0.60;99.90
13035;DHT22;6584;48.022;11.810;2022-12-08T17:30:35;0.60;99.90
13035;DHT22;6584;48.022;11.810;2022-12-08T17:33:00;0.60;99.90
13035;DHT22;6584;48.022;11.810;2022-12-08T17:35:26;0.60;99.90
13035;DHT22;6584;48.022;11.810;2022-12-08T17:37:51;0.60;99.90
13035;DHT22;6584;48.022;11.810;2022-12-08T17:40:17;0.50;99.90
13035;DHT22;6584;48.022;11.810;2022-12-08T17:42:43;0.50;99.90
13035;DHT22;6584;48.022;11.810;2022-12-08T17:45:09;0.50;99.90
13035;DHT22;6584;48.022;11.810;2022-12-08T17:47:35;0.40;99.90
13035;DHT22;6584;48.022;11.810;2022-12-08T17:50:01;0.40;99.90
13035;DHT22;6584;48.022;11.810;2022-12-08T17:52:27;0.40;99.90
13035;DHT22;6584;48.022;11.810;2022-12-08T17:54:52;0.50;99.90
13035;DHT22;6584;48.022;11.810;2022-12-08T17:57:18;0.40;99.90
13035;DHT22;6584;48.022;11.810;2022-12-08T17:59:43;0.40;99.90
13035;DHT22;6584;48.022;11.810;2022-12-08T18:02:10;0.30;99.90
13035;DHT22;6584;48.022;11.810;2022-12-08T18:04:36;0.30;99.90
13035;DHT22;6584;48.022;11.810;2022-12-08T18:07:02;0.30;99.90
13035;DHT22;6584;48.022;11.810;2022-12-08T18:09:29;0.30;99.90